createdAt,value
2022-12-16T00:01:25.604Z,55.75
2022-12-16T00:03:55.862Z,55.33
2022-12-16T00:06:25.586Z,55.16
2022-12-16T00:08:52.955Z,55.14
2022-12-16T00:11:22.418Z,54.60
2022-12-16T00:13:49.394Z,54.54
2022-12-16T00:16:20.461Z,54.87
2022-12-16T00:18:48.488Z,54.56
2022-12-16T00:21:18.416Z,54.90
2022-12-16T00:23:45.819Z,54.65
2022-12-16T00:26:13.767Z,55.24
2022-12-16T00:28:43.655Z,54.51
2022-12-16T00:31:11.365Z,53.89
2022-12-16T00:33:38.648Z,54.29
2022-12-16T00:36:06.769Z,54.35
2022-12-16T00:38:33.715Z,53.33
2022-12-16T00:41:01.012Z,53.56
2022-12-16T00:43:27.961Z,53.36
2022-12-16T00:45:56.313Z,53.63
2022-12-16T00:48:23.468Z,53.36
2022-12-16T00:50:52.666Z,53.42
2022-12-16T00:53:23.705Z,53.72
2022-12-16T00:55:50.717Z,53.19
2022-12-16T00:58:19.028Z,52.95
2022-12-16T01:00:46.062Z,53.53
2022-12-16T01:03:21.059Z,53.04
2022-12-16T01:05:49.185Z,52.92
2022-12-16T01:08:16.450Z,52.51
2022-12-16T01:10:49.378Z,52.92
2022-12-16T01:13:17.763Z,52.54
2022-12-16T01:15:44.729Z,52.95
2022-12-16T01:18:11.758Z,52.80
2022-12-16T01:20:40.235Z,51.79
2022-12-16T01:23:07.326Z,52.14
2022-12-16T01:25:35.375Z,52.64
2022-12-16T01:28:02.334Z,53.21
2022-12-16T01:30:29.431Z,52.72
2022-12-16T01:32:56.369Z,51.95
2022-12-16T01:35:52.002Z,52.33
2022-12-16T01:38:11.642Z,52.77
2022-12-16T01:40:38.583Z,52.74
2022-12-16T01:43:12.679Z,52.33
2022-12-16T01:45:40.182Z,52.70
2022-12-16T01:48:21.343Z,52.86
2022-12-16T01:50:52.451Z,52.61
2022-12-16T01:53:21.886Z,53.35
2022-12-16T01:55:54.678Z,52.99
2022-12-16T01:58:26.789Z,53.61
2022-12-16T02:00:54.433Z,53.40
2022-12-16T02:03:22.576Z,52.93
2022-12-16T02:05:51.097Z,53.61
2022-12-16T02:08:21.036Z,53.33
2022-12-16T02:11:11.973Z,53.18
2022-12-16T02:14:09.023Z,53.47
2022-12-16T02:16:49.874Z,53.94
2022-12-16T02:20:03.829Z,54.34
2022-12-16T02:22:58.341Z,54.20
2022-12-16T02:25:57.954Z,55.05
2022-12-16T02:28:55.376Z,55.33
2022-12-16T02:31:34.893Z,54.91
2022-12-16T02:34:21.559Z,54.74
2022-12-16T02:37:08.122Z,55.09
2022-12-16T02:39:39.449Z,55.49
2022-12-16T02:42:19.451Z,54.84
2022-12-16T02:45:02.931Z,54.85
2022-12-16T02:47:32.931Z,54.54
2022-12-16T02:50:00.558Z,54.67
2022-12-16T02:52:32.958Z,54.55
2022-12-16T02:55:06.232Z,55.12
2022-12-16T02:58:08.983Z,54.34
2022-12-16T03:00:50.613Z,54.74
2022-12-16T03:03:30.869Z,54.92
2022-12-16T03:06:01.841Z,54.55
2022-12-16T03:08:35.558Z,54.73
2022-12-16T03:11:08.181Z,54.82
2022-12-16T03:13:43.723Z,54.51
2022-12-16T03:16:16.188Z,54.25
2022-12-16T03:18:54.961Z,54.43
2022-12-16T03:21:27.442Z,54.40
2022-12-16T03:24:00.457Z,54.64
2022-12-16T03:26:35.172Z,54.63
2022-12-16T03:29:09.954Z,54.56
2022-12-16T03:31:42.700Z,54.94
2022-12-16T03:34:20.395Z,54.73
2022-12-16T03:36:56.510Z,54.51
2022-12-16T03:39:26.978Z,54.61
2022-12-16T03:41:55.968Z,54.14
2022-12-16T03:44:25.233Z,54.88
2022-12-16T03:46:52.452Z,54.63
2022-12-16T03:49:22.233Z,55.06
2022-12-16T03:51:49.212Z,54.87
2022-12-16T03:54:16.214Z,55.10
2022-12-16T03:56:43.189Z,54.87
2022-12-16T03:59:10.903Z,54.81
2022-12-16T04:01:37.920Z,54.41
2022-12-16T04:04:05.273Z,54.42
2022-12-16T04:06:33.751Z,54.55
2022-12-16T04:09:00.715Z,54.28
2022-12-16T04:12:03.231Z,54.11
2022-12-16T04:14:53.265Z,54.08
2022-12-16T04:17:39.241Z,53.94
2022-12-16T04:20:34.045Z,54.27
2022-12-16T04:23:22.587Z,54.86
2022-12-16T04:25:50.322Z,54.29
2022-12-16T04:28:17.508Z,53.69
2022-12-16T04:30:44.518Z,54.13
2022-12-16T04:33:33.248Z,53.53
2022-12-16T04:36:19.132Z,53.47
2022-12-16T04:39:05.877Z,53.64
2022-12-16T04:41:51.389Z,53.58
2022-12-16T04:44:37.457Z,53.02
2022-12-16T04:47:23.286Z,53.17
2022-12-16T04:50:08.816Z,53.81
2022-12-16T04:52:54.669Z,53.15
2022-12-16T04:55:41.491Z,53.20
2022-12-16T04:58:27.180Z,52.81
2022-12-16T05:01:12.675Z,52.93
2022-12-16T05:03:58.427Z,52.56
2022-12-16T05:06:43.558Z,53.90
2022-12-16T05:09:29.021Z,53.85
2022-12-16T05:12:15.980Z,53.78
2022-12-16T05:15:01.831Z,53.18
2022-12-16T05:17:47.654Z,53.25
2022-12-16T05:20:33.535Z,53.66
2022-12-16T05:23:18.894Z,53.21
2022-12-16T05:26:04.932Z,53.50
2022-12-16T05:28:52.134Z,53.49
2022-12-16T05:31:38.175Z,52.74
2022-12-16T05:34:23.977Z,53.39
2022-12-16T05:37:09.391Z,52.63
2022-12-16T05:39:56.570Z,53.53
2022-12-16T05:42:42.081Z,52.65
2022-12-16T05:45:29.652Z,52.47
2022-12-16T05:48:15.191Z,53.17
2022-12-16T05:51:00.749Z,53.10
2022-12-16T05:53:46.291Z,52.34
2022-12-16T05:56:31.850Z,51.49
2022-12-16T05:59:17.178Z,52.02
2022-12-16T06:02:04.243Z,52.50
2022-12-16T06:04:50.153Z,52.17
2022-12-16T06:07:35.844Z,52.52
2022-12-16T06:10:36.966Z,52.82
2022-12-16T06:13:22.424Z,52.16
2022-12-16T06:16:09.133Z,52.90
2022-12-16T06:18:56.334Z,52.32
2022-12-16T06:21:42.791Z,52.16
2022-12-16T06:24:28.792Z,52.03
2022-12-16T06:27:14.692Z,52.24
2022-12-16T06:30:00.189Z,53.30
2022-12-16T06:32:45.731Z,53.22
2022-12-16T06:35:32.556Z,53.23
2022-12-16T06:38:18.057Z,53.70
2022-12-16T06:41:03.439Z,53.99
2022-12-16T06:43:48.998Z,53.62
2022-12-16T06:46:34.591Z,53.26
2022-12-16T06:49:20.104Z,53.18
2022-12-16T06:52:06.862Z,53.80
2022-12-16T06:54:52.501Z,52.83
2022-12-16T06:57:37.902Z,53.29
2022-12-16T07:00:27.385Z,53.48
2022-12-16T07:03:16.921Z,52.91
2022-12-16T07:06:02.848Z,52.75
2022-12-16T07:08:49.531Z,53.32
2022-12-16T07:11:35.275Z,53.45
2022-12-16T07:14:21.124Z,53.59
2022-12-16T07:17:06.435Z,54.00
2022-12-16T07:19:52.035Z,54.41
2022-12-16T07:22:37.770Z,53.96
2022-12-16T07:25:26.223Z,54.14
2022-12-16T07:28:15.534Z,54.09
2022-12-16T07:31:02.464Z,54.51
2022-12-16T07:33:47.919Z,54.07
2022-12-16T07:36:33.628Z,54.33
2022-12-16T07:39:19.135Z,54.22
2022-12-16T07:42:05.949Z,54.37
2022-12-16T07:44:51.597Z,54.86
2022-12-16T07:47:36.963Z,54.75
2022-12-16T07:50:23.524Z,54.59
2022-12-16T07:53:13.572Z,55.02
2022-12-16T07:55:58.845Z,54.46
2022-12-16T07:58:46.634Z,54.66
2022-12-16T08:01:32.726Z,54.88
2022-12-16T08:04:18.495Z,54.53
2022-12-16T08:07:04.671Z,54.72
2022-12-16T08:09:50.168Z,54.78
2022-12-16T08:12:36.975Z,54.27
2022-12-16T08:15:25.618Z,53.85
2022-12-16T08:18:12.354Z,54.49
2022-12-16T08:20:58.143Z,54.57
2022-12-16T08:23:44.049Z,54.11
2022-12-16T08:26:29.708Z,53.71
2022-12-16T08:29:42.415Z,52.97
2022-12-16T08:32:22.756Z,52.95
2022-12-16T08:35:08.092Z,54.00
2022-12-16T08:37:54.108Z,53.71
2022-12-16T08:40:43.033Z,53.10
2022-12-16T08:43:29.117Z,53.60
2022-12-16T08:46:15.336Z,53.27
2022-12-16T08:49:02.403Z,53.02
2022-12-16T08:51:48.638Z,53.37
2022-12-16T08:54:34.162Z,53.01
2022-12-16T08:57:20.250Z,52.52
2022-12-16T09:00:06.110Z,52.63
2022-12-16T09:02:51.659Z,53.08
2022-12-16T09:05:40.097Z,53.82
2022-12-16T09:08:26.288Z,52.53
2022-12-16T09:11:11.954Z,53.97
2022-12-16T09:13:58.696Z,53.56
2022-12-16T09:16:44.496Z,53.45
2022-12-16T09:19:30.352Z,52.56
2022-12-16T09:22:17.322Z,53.30
2022-12-16T09:25:03.198Z,53.12
2022-12-16T09:27:48.584Z,53.42
2022-12-16T09:30:34.258Z,52.92
2022-12-16T09:33:21.165Z,53.37
2022-12-16T09:36:26.739Z,52.70
2022-12-16T09:39:13.450Z,52.29
2022-12-16T09:42:02.352Z,52.61
2022-12-16T09:45:06.632Z,51.52
2022-12-16T09:48:06.707Z,51.92
2022-12-16T09:50:58.363Z,53.11
2022-12-16T09:53:46.918Z,52.85
2022-12-16T09:56:39.326Z,51.27
2022-12-16T09:59:33.165Z,50.65
2022-12-16T10:02:20.473Z,50.37
2022-12-16T10:05:10.681Z,50.41
2022-12-16T10:08:08.715Z,49.90
2022-12-16T10:11:10.471Z,50.52
2022-12-16T10:14:07.372Z,49.39
2022-12-16T10:17:09.754Z,50.21
2022-12-16T10:20:12.265Z,49.83
2022-12-16T10:23:08.946Z,49.58
2022-12-16T10:26:04.206Z,49.66
2022-12-16T10:29:05.031Z,49.32
2022-12-16T10:31:52.146Z,49.42
2022-12-16T10:34:45.562Z,49.61
2022-12-16T10:37:39.547Z,49.06
2022-12-16T10:40:33.775Z,48.84
2022-12-16T10:43:24.115Z,48.96
2022-12-16T10:46:15.262Z,48.55
2022-12-16T10:49:01.840Z,48.17
2022-12-16T10:51:48.741Z,48.10
2022-12-16T10:54:50.681Z,47.58
2022-12-16T10:57:51.187Z,47.76
2022-12-16T11:00:55.492Z,47.93
2022-12-16T11:03:47.988Z,48.44
2022-12-16T11:06:40.823Z,47.56
2022-12-16T11:09:48.309Z,48.14
2022-12-16T11:12:48.224Z,48.58
2022-12-16T11:15:43.216Z,48.04
2022-12-16T11:18:32.816Z,48.64
2022-12-16T11:21:36.775Z,48.77
2022-12-16T11:24:33.403Z,48.73
2022-12-16T11:27:21.902Z,48.77
2022-12-16T11:30:10.642Z,48.21
2022-12-16T11:32:59.222Z,48.69
2022-12-16T11:35:49.312Z,48.21
2022-12-16T11:38:47.888Z,48.39
2022-12-16T11:41:44.915Z,48.20
2022-12-16T11:44:41.149Z,47.93
2022-12-16T11:47:42.216Z,47.78
2022-12-16T11:50:35.728Z,47.62
2022-12-16T11:53:28.709Z,47.15
2022-12-16T11:56:19.147Z,46.78
2022-12-16T11:59:10.125Z,46.37
2022-12-16T12:02:03.889Z,45.98
2022-12-16T12:04:49.832Z,44.87
2022-12-16T12:07:57.490Z,44.22
2022-12-16T12:11:22.603Z,44.49
2022-12-16T12:14:28.807Z,43.83
2022-12-16T12:17:32.100Z,44.02
2022-12-16T12:20:45.241Z,43.41
2022-12-16T12:23:49.655Z,43.89
2022-12-16T12:26:45.734Z,44.12
2022-12-16T12:29:51.454Z,44.54
2022-12-16T12:32:51.892Z,45.10
2022-12-16T12:36:00.763Z,45.47
2022-12-16T12:38:59.138Z,45.85
2022-12-16T12:41:59.522Z,46.51
2022-12-16T12:45:04.104Z,47.12
2022-12-16T12:47:56.894Z,47.71
2022-12-16T12:50:53.137Z,47.43
2022-12-16T12:53:54.616Z,47.79
2022-12-16T12:56:58.805Z,48.83
2022-12-16T13:00:02.042Z,48.28
2022-12-16T13:03:01.309Z,48.79
2022-12-16T13:05:51.299Z,49.04
2022-12-16T13:09:16.823Z,49.13
2022-12-16T13:12:48.452Z,50.18
2022-12-16T13:15:53.529Z,50.92
2022-12-16T13:18:43.536Z,51.05
2022-12-16T13:22:04.924Z,50.88
2022-12-16T13:24:59.474Z,50.03
2022-12-16T13:28:04.045Z,50.41
2022-12-16T13:30:52.090Z,50.23
2022-12-16T13:33:47.741Z,50.58
2022-12-16T13:36:36.838Z,49.84
2022-12-16T13:39:42.826Z,49.72
2022-12-16T13:43:08.810Z,51.04
2022-12-16T13:46:01.512Z,50.27
2022-12-16T13:48:55.618Z,51.13
2022-12-16T13:52:19.874Z,51.09
2022-12-16T13:55:24.988Z,51.02
2022-12-16T13:58:20.923Z,51.35
2022-12-16T14:01:20.136Z,51.47
2022-12-16T14:04:09.546Z,51.07
2022-12-16T14:06:58.582Z,51.28
2022-12-16T14:09:52.869Z,51.32
2022-12-16T14:13:15.204Z,50.98
2022-12-16T14:16:18.729Z,51.39
2022-12-16T14:19:26.994Z,52.06
2022-12-16T14:22:33.253Z,52.02
2022-12-16T14:25:27.992Z,51.63
2022-12-16T14:28:16.988Z,51.03
2022-12-16T14:31:02.497Z,51.58
2022-12-16T14:33:48.526Z,50.95
2022-12-16T14:36:43.793Z,51.36
2022-12-16T14:39:32.289Z,51.03
2022-12-16T14:42:18.017Z,51.67
2022-12-16T14:45:06.915Z,51.48
2022-12-16T14:47:58.771Z,51.57
2022-12-16T14:50:48.394Z,52.02
2022-12-16T14:53:37.818Z,52.27
2022-12-16T14:56:37.039Z,51.51
2022-12-16T14:59:38.010Z,52.43
2022-12-16T15:02:46.510Z,52.05
2022-12-16T15:05:33.589Z,53.04
2022-12-16T15:08:19.739Z,52.15
2022-12-16T15:11:06.437Z,52.97
2022-12-16T15:13:57.750Z,52.64
2022-12-16T15:16:53.368Z,53.74
2022-12-16T15:19:43.045Z,53.04
2022-12-16T15:22:35.902Z,54.19
2022-12-16T15:25:22.422Z,53.37
2022-12-16T15:28:30.474Z,53.35
2022-12-16T15:31:31.843Z,53.05
2022-12-16T15:34:40.464Z,53.58
2022-12-16T15:37:41.876Z,53.60
2022-12-16T15:40:46.766Z,53.46
2022-12-16T15:43:57.339Z,53.86
2022-12-16T15:46:46.402Z,53.30
2022-12-16T15:49:42.636Z,54.13
2022-12-16T15:52:53.312Z,53.81
2022-12-16T15:55:48.000Z,53.68
2022-12-16T15:58:40.080Z,54.01
2022-12-16T16:01:26.668Z,53.74
2022-12-16T16:04:15.026Z,53.60
2022-12-16T16:07:06.557Z,53.48
2022-12-16T16:09:56.148Z,53.72
2022-12-16T16:12:44.295Z,53.76
2022-12-16T16:15:33.298Z,54.83
2022-12-16T16:18:24.427Z,55.04
2022-12-16T16:21:10.970Z,55.17
2022-12-16T16:23:56.520Z,55.22
2022-12-16T16:26:46.756Z,54.79
2022-12-16T16:29:32.495Z,54.64
2022-12-16T16:32:18.157Z,55.50
2022-12-16T16:35:04.046Z,55.20
2022-12-16T16:37:49.328Z,54.67
2022-12-16T16:40:45.678Z,55.13
2022-12-16T16:43:32.997Z,55.44
2022-12-16T16:46:19.185Z,55.07
2022-12-16T16:49:05.195Z,55.86
2022-12-16T16:51:50.813Z,55.26
2022-12-16T16:54:36.440Z,55.29
2022-12-16T16:57:22.214Z,55.66
2022-12-16T17:00:09.101Z,56.29
2022-12-16T17:02:54.964Z,56.00
2022-12-16T17:05:41.733Z,55.73
2022-12-16T17:08:27.112Z,55.89
2022-12-16T17:11:29.835Z,55.27
2022-12-16T17:14:15.473Z,55.71
2022-12-16T17:17:02.322Z,55.53
2022-12-16T17:19:47.918Z,55.38
2022-12-16T17:22:33.471Z,55.21
2022-12-16T17:25:19.328Z,55.10
2022-12-16T17:28:05.163Z,55.75
2022-12-16T17:30:50.759Z,54.78
2022-12-16T17:33:37.976Z,54.94
2022-12-16T17:36:28.503Z,55.22
2022-12-16T17:39:17.249Z,54.69
2022-12-16T17:42:03.197Z,54.61
2022-12-16T17:44:48.926Z,54.49
2022-12-16T17:47:35.243Z,55.12
2022-12-16T17:50:24.003Z,55.31
2022-12-16T17:53:13.073Z,55.31
2022-12-16T17:55:58.574Z,55.29
2022-12-16T17:58:52.789Z,54.89
2022-12-16T18:01:39.215Z,54.70
2022-12-16T18:04:25.695Z,54.55
2022-12-16T18:07:13.156Z,54.90
2022-12-16T18:09:58.633Z,55.09
2022-12-16T18:12:45.477Z,54.28
2022-12-16T18:15:31.234Z,55.23
2022-12-16T18:18:17.110Z,53.88
2022-12-16T18:21:03.137Z,54.85
2022-12-16T18:23:50.614Z,55.18
2022-12-16T18:26:36.652Z,55.40
2022-12-16T18:29:22.726Z,54.79
2022-12-16T18:32:08.799Z,54.48
2022-12-16T18:34:54.301Z,54.38
2022-12-16T18:37:40.144Z,55.05
2022-12-16T18:40:28.750Z,54.58
2022-12-16T18:43:14.625Z,54.11
2022-12-16T18:46:00.172Z,53.56
2022-12-16T18:48:47.003Z,53.40
2022-12-16T18:51:32.346Z,53.16
2022-12-16T18:54:18.083Z,53.46
2022-12-16T18:57:06.252Z,53.40
2022-12-16T18:59:51.954Z,54.54
2022-12-16T19:02:37.491Z,53.26
2022-12-16T19:05:23.683Z,53.46
2022-12-16T19:08:14.087Z,53.49
2022-12-16T19:11:00.382Z,53.57
2022-12-16T19:13:47.196Z,54.88
2022-12-16T19:16:32.775Z,53.18
2022-12-16T19:19:20.410Z,53.05
2022-12-16T19:22:06.599Z,53.50
2022-12-16T19:24:52.155Z,53.36
2022-12-16T19:27:37.704Z,53.58
2022-12-16T19:30:27.331Z,53.56
2022-12-16T19:33:12.971Z,53.75
2022-12-16T19:35:58.456Z,53.87
2022-12-16T19:38:43.781Z,53.18
2022-12-16T19:41:33.859Z,53.63
2022-12-16T19:44:20.269Z,54.33
2022-12-16T19:47:07.089Z,53.95
2022-12-16T19:49:52.611Z,53.86
2022-12-16T19:52:40.726Z,53.73
2022-12-16T19:55:27.142Z,53.61
2022-12-16T19:58:13.003Z,53.73
2022-12-16T20:00:58.634Z,53.59
2022-12-16T20:03:46.195Z,52.98
2022-12-16T20:06:32.375Z,53.38
2022-12-16T20:09:18.026Z,53.74
2022-12-16T20:12:03.915Z,53.65
2022-12-16T20:14:49.803Z,52.98
2022-12-16T20:17:35.297Z,53.51
2022-12-16T20:20:23.105Z,54.01
2022-12-16T20:23:08.757Z,53.82
2022-12-16T20:29:00.665Z,53.44
2022-12-16T20:31:47.916Z,53.35
2022-12-16T20:34:33.881Z,53.33
2022-12-16T20:37:21.062Z,53.61
2022-12-16T20:40:06.629Z,53.08
2022-12-16T20:45:57.520Z,53.58
2022-12-16T20:48:43.161Z,53.66
2022-12-16T20:51:29.206Z,53.99
2022-12-16T20:54:16.174Z,53.83
2022-12-16T20:57:02.047Z,53.59
2022-12-16T20:59:47.382Z,54.04
2022-12-16T21:02:34.217Z,55.01
2022-12-16T21:05:20.924Z,54.18
2022-12-16T21:08:20.685Z,54.08
2022-12-16T21:11:07.658Z,53.32
2022-12-16T21:13:56.447Z,54.68
2022-12-16T21:16:42.202Z,54.27
2022-12-16T21:19:33.101Z,54.42
2022-12-16T21:22:19.237Z,54.34
2022-12-16T21:25:04.909Z,53.77
2022-12-16T21:27:51.715Z,54.11
2022-12-16T21:30:38.219Z,54.53
2022-12-16T21:33:23.614Z,54.45
2022-12-16T21:36:12.111Z,55.00
2022-12-16T21:38:58.022Z,55.22
2022-12-16T21:41:43.498Z,54.88
2022-12-16T21:44:30.342Z,54.95
2022-12-16T21:47:15.904Z,54.72
2022-12-16T21:50:01.707Z,54.90
2022-12-16T21:52:47.663Z,55.01
2022-12-16T21:55:33.270Z,54.39
2022-12-16T21:58:18.843Z,54.58
2022-12-16T22:01:12.628Z,55.07
2022-12-16T22:03:58.191Z,54.52
2022-12-16T22:06:48.577Z,54.34
2022-12-16T22:09:34.699Z,54.48
2022-12-16T22:12:20.362Z,54.13
2022-12-16T22:15:05.957Z,54.63
2022-12-16T22:17:57.945Z,54.57
2022-12-16T22:20:44.186Z,54.93
2022-12-16T22:23:29.933Z,54.90
2022-12-16T22:26:16.599Z,55.33
2022-12-16T22:29:02.159Z,55.49
2022-12-16T22:31:47.998Z,55.34
2022-12-16T22:34:35.686Z,55.06
2022-12-16T22:37:21.334Z,55.60
2022-12-16T22:40:07.804Z,55.68
2022-12-16T22:42:53.307Z,55.17
2022-12-16T22:45:39.278Z,55.40
2022-12-16T22:48:25.266Z,56.18
2022-12-16T22:51:12.136Z,55.67
2022-12-16T22:53:57.948Z,56.13
2022-12-16T22:56:43.562Z,55.91
2022-12-16T22:59:29.066Z,55.45
2022-12-16T23:02:14.847Z,56.17
2022-12-16T23:05:00.471Z,55.82
2022-12-16T23:07:47.740Z,56.23
2022-12-16T23:10:33.423Z,55.95
2022-12-16T23:13:19.306Z,55.73
2022-12-16T23:16:04.944Z,55.35
2022-12-16T23:18:50.792Z,55.67
2022-12-16T23:21:38.498Z,55.17
2022-12-16T23:24:27.586Z,54.76
2022-12-16T23:27:13.597Z,55.24
2022-12-16T23:29:59.094Z,54.98
2022-12-16T23:32:30.905Z,53.91
2022-12-16T23:32:45.167Z,55.07
2022-12-16T23:35:31.078Z,55.97
2022-12-16T23:38:20.660Z,56.38
2022-12-16T23:41:13.059Z,56.00
2022-12-16T23:44:00.339Z,55.21
2022-12-16T23:46:46.301Z,55.35
2022-12-16T23:49:32.239Z,55.46
2022-12-16T23:52:18.016Z,55.47
2022-12-16T23:55:03.515Z,55.78
2022-12-16T23:57:50.475Z,55.89
